createdAt,value
2024-03-26T00:00:40.388Z,0.83
2024-03-26T00:01:41.411Z,0.83
2024-03-26T00:02:40.379Z,0.84
2024-03-26T00:03:40.348Z,0.83
2024-03-26T00:04:40.339Z,0.85
2024-03-26T00:05:40.339Z,0.83
2024-03-26T00:06:40.340Z,0.82
2024-03-26T00:07:40.318Z,0.84
2024-03-26T00:08:40.320Z,0.81
2024-03-26T00:09:40.292Z,0.82
2024-03-26T00:10:40.349Z,0.82
2024-03-26T00:11:40.306Z,0.81
2024-03-26T00:12:40.291Z,0.82
2024-03-26T00:13:40.328Z,0.81
2024-03-26T00:14:40.352Z,0.82
2024-03-26T00:15:40.379Z,0.80
2024-03-26T00:16:40.404Z,0.81
2024-03-26T00:17:40.465Z,0.82
2024-03-26T00:18:40.476Z,0.83
2024-03-26T00:19:40.514Z,0.79
2024-03-26T00:20:40.567Z,0.82
2024-03-26T00:21:40.579Z,0.81
2024-03-26T00:22:40.603Z,0.80
2024-03-26T00:23:40.702Z,0.81
2024-03-26T00:24:40.668Z,0.81
2024-03-26T00:25:40.710Z,0.82
2024-03-26T00:26:40.750Z,0.80
2024-03-26T00:27:40.768Z,0.80
2024-03-26T00:29:40.864Z,0.80
2024-03-26T00:30:40.871Z,0.80
2024-03-26T00:31:40.902Z,0.78
2024-03-26T00:32:40.944Z,0.79
2024-03-26T00:33:40.964Z,0.78
2024-03-26T00:34:40.988Z,0.79
2024-03-26T00:35:41.058Z,0.79
2024-03-26T00:36:41.074Z,0.79
2024-03-26T00:37:41.095Z,0.79
2024-03-26T00:38:41.129Z,0.79
2024-03-26T00:39:41.154Z,0.79
2024-03-26T00:40:41.188Z,0.78
2024-03-26T00:41:41.240Z,0.76
2024-03-26T00:42:41.256Z,0.78
2024-03-26T00:43:41.295Z,0.78
2024-03-26T00:44:41.329Z,0.78
2024-03-26T00:45:41.355Z,0.78
2024-03-26T00:46:41.402Z,0.77
2024-03-26T00:47:41.429Z,0.79
2024-03-26T00:48:41.443Z,0.79
2024-03-26T00:49:41.485Z,0.78
2024-03-26T00:50:41.524Z,0.78
2024-03-26T00:51:41.548Z,0.78
2024-03-26T00:52:41.584Z,0.78
2024-03-26T00:53:41.633Z,0.76
2024-03-26T00:54:41.666Z,0.79
2024-03-26T00:55:41.720Z,0.78
2024-03-26T00:56:41.767Z,0.79
2024-03-26T00:57:41.781Z,0.77
2024-03-26T00:58:41.784Z,0.77
2024-03-26T00:59:41.776Z,0.77
2024-03-26T01:00:41.748Z,0.78
2024-03-26T01:01:41.755Z,0.77
2024-03-26T01:02:41.751Z,0.79
2024-03-26T01:03:41.744Z,0.79
2024-03-26T01:04:41.725Z,0.78
2024-03-26T01:05:41.736Z,0.77
2024-03-26T01:06:41.707Z,0.78
2024-03-26T01:07:41.698Z,0.78
2024-03-26T01:08:41.693Z,0.78
2024-03-26T01:09:41.665Z,0.77
2024-03-26T01:10:41.714Z,0.78
2024-03-26T01:11:41.746Z,0.77
2024-03-26T01:12:41.778Z,0.77
2024-03-26T01:13:41.811Z,0.77
2024-03-26T01:14:41.861Z,0.77
2024-03-26T01:15:41.836Z,0.77
2024-03-26T01:16:41.840Z,0.76
2024-03-26T01:17:41.810Z,0.76
2024-03-26T01:18:41.800Z,0.76
2024-03-26T01:19:41.784Z,0.75
2024-03-26T01:20:41.765Z,0.75
2024-03-26T01:21:41.765Z,0.75
2024-03-26T01:22:41.746Z,0.75
2024-03-26T01:23:41.728Z,0.74
2024-03-26T01:24:41.719Z,0.75
2024-03-26T01:25:41.706Z,0.75
2024-03-26T01:26:41.826Z,0.75
2024-03-26T01:27:41.775Z,0.73
2024-03-26T01:28:41.833Z,0.74
2024-03-26T01:29:41.858Z,0.73
2024-03-26T01:30:41.879Z,0.73
2024-03-26T01:31:41.918Z,0.75
2024-03-26T01:32:41.963Z,0.74
2024-03-26T01:33:41.995Z,0.74
2024-03-26T01:34:42.018Z,0.74
2024-03-26T01:35:42.075Z,0.74
2024-03-26T01:36:42.092Z,0.74
2024-03-26T01:37:42.125Z,0.75
2024-03-26T01:38:42.168Z,0.76
2024-03-26T01:39:42.197Z,0.73
2024-03-26T01:40:42.228Z,0.73
2024-03-26T01:41:42.297Z,0.74
2024-03-26T01:42:42.303Z,0.74
2024-03-26T01:43:42.333Z,0.74
2024-03-26T01:44:42.380Z,0.73
2024-03-26T01:45:42.400Z,0.75
2024-03-26T01:46:42.462Z,0.75
2024-03-26T01:47:42.472Z,0.73
2024-03-26T01:48:42.497Z,0.74
2024-03-26T01:49:42.533Z,0.74
2024-03-26T01:50:42.619Z,0.74
2024-03-26T01:51:42.618Z,0.74
2024-03-26T01:52:42.657Z,0.74
2024-03-26T01:53:42.687Z,0.73
2024-03-26T01:54:42.712Z,0.73
2024-03-26T01:55:42.759Z,0.73
2024-03-26T01:56:42.801Z,0.75
2024-03-26T01:57:42.839Z,0.73
2024-03-26T01:58:42.867Z,0.74
2024-03-26T01:59:42.911Z,0.74
2024-03-26T02:00:42.930Z,0.74
2024-03-26T02:01:42.974Z,0.72
2024-03-26T02:02:43.034Z,0.74
2024-03-26T02:03:42.993Z,0.74
2024-03-26T02:04:42.978Z,0.74
2024-03-26T02:05:42.976Z,0.74
2024-03-26T02:06:42.948Z,0.74
2024-03-26T02:07:42.929Z,0.75
2024-03-26T02:08:42.967Z,0.75
2024-03-26T02:09:42.924Z,0.75
2024-03-26T02:10:42.911Z,0.75
2024-03-26T02:11:42.876Z,0.76
2024-03-26T02:12:42.875Z,0.75
2024-03-26T02:13:42.876Z,0.75
2024-03-26T02:14:42.890Z,0.73
2024-03-26T02:15:42.917Z,0.75
2024-03-26T02:16:42.961Z,0.74
2024-03-26T02:17:43.017Z,0.75
2024-03-26T02:18:43.055Z,0.73
2024-03-26T02:19:43.097Z,0.75
2024-03-26T02:20:43.804Z,0.73
2024-03-26T02:21:43.153Z,0.73
2024-03-26T02:22:43.184Z,0.75
2024-03-26T02:23:43.260Z,0.74
2024-03-26T02:24:43.287Z,0.73
2024-03-26T02:25:43.316Z,0.74
2024-03-26T02:26:43.355Z,0.74
2024-03-26T02:27:43.343Z,0.73
2024-03-26T02:28:43.314Z,0.73
2024-03-26T02:29:43.317Z,0.74
2024-03-26T02:30:43.299Z,0.74
2024-03-26T02:31:43.273Z,0.74
2024-03-26T02:32:43.269Z,0.72
2024-03-26T02:33:43.253Z,0.74
2024-03-26T02:34:43.219Z,0.72
2024-03-26T02:35:43.227Z,0.72
2024-03-26T02:36:43.188Z,0.72
2024-03-26T02:37:43.185Z,0.72
2024-03-26T02:38:43.170Z,0.71
2024-03-26T02:39:43.159Z,0.73
2024-03-26T02:40:43.211Z,0.73
2024-03-26T02:41:43.250Z,0.73
2024-03-26T02:42:43.280Z,0.73
2024-03-26T02:43:43.310Z,0.72
2024-03-26T02:44:43.389Z,0.72
2024-03-26T02:45:43.391Z,0.73
2024-03-26T02:46:43.455Z,0.72
2024-03-26T02:47:43.473Z,0.72
2024-03-26T02:48:43.520Z,0.73
2024-03-26T02:49:43.542Z,0.73
2024-03-26T02:50:43.602Z,0.73
2024-03-26T02:51:43.646Z,0.72
2024-03-26T02:52:43.657Z,0.74
2024-03-26T02:53:43.692Z,0.74
2024-03-26T02:54:43.719Z,0.73
2024-03-26T02:55:43.757Z,0.74
2024-03-26T02:56:43.826Z,0.73
2024-03-26T02:57:43.817Z,0.74
2024-03-26T02:58:43.857Z,0.74
2024-03-26T02:59:43.971Z,0.74
2024-03-26T03:00:43.940Z,0.73
2024-03-26T03:01:43.978Z,0.73
2024-03-26T03:02:46.068Z,0.73
2024-03-26T03:03:44.001Z,0.72
2024-03-26T03:04:43.999Z,0.73
2024-03-26T03:05:43.993Z,0.74
2024-03-26T03:06:43.952Z,0.73
2024-03-26T03:07:43.933Z,0.74
2024-03-26T03:08:43.925Z,0.74
2024-03-26T03:09:43.928Z,0.72
2024-03-26T03:10:43.905Z,0.72
2024-03-26T03:11:43.901Z,0.73
2024-03-26T03:12:43.873Z,0.73
2024-03-26T03:13:43.855Z,0.71
2024-03-26T03:14:43.853Z,0.73
2024-03-26T03:15:43.837Z,0.72
2024-03-26T03:16:43.901Z,0.73
2024-03-26T03:17:43.817Z,0.74
2024-03-26T03:18:43.808Z,0.73
2024-03-26T03:19:43.792Z,0.73
2024-03-26T03:20:43.806Z,0.74
2024-03-26T03:21:43.770Z,0.73
2024-03-26T03:22:43.743Z,0.72
2024-03-26T03:23:43.778Z,0.72
2024-03-26T03:24:43.726Z,0.73
2024-03-26T03:25:43.698Z,0.73
2024-03-26T03:26:43.702Z,0.73
2024-03-26T03:27:43.683Z,0.72
2024-03-26T03:28:43.674Z,0.73
2024-03-26T03:29:43.672Z,0.71
2024-03-26T03:30:43.647Z,0.73
2024-03-26T03:31:43.642Z,0.74
2024-03-26T03:32:43.641Z,0.74
2024-03-26T03:33:43.613Z,0.73
2024-03-26T03:34:43.612Z,0.72
2024-03-26T03:35:43.614Z,0.73
2024-03-26T03:36:43.596Z,0.73
2024-03-26T03:37:43.587Z,0.71
2024-03-26T03:38:43.611Z,0.72
2024-03-26T03:39:43.540Z,0.73
2024-03-26T03:40:43.533Z,0.73
2024-03-26T03:41:43.534Z,0.73
2024-03-26T03:42:43.496Z,0.73
2024-03-26T03:43:43.482Z,0.73
2024-03-26T03:44:43.490Z,0.72
2024-03-26T03:45:43.452Z,0.71
2024-03-26T03:46:43.453Z,0.73
2024-03-26T03:47:43.434Z,0.71
2024-03-26T03:48:43.478Z,0.71
2024-03-26T03:49:43.518Z,0.71
2024-03-26T03:50:43.581Z,0.71
2024-03-26T03:51:43.619Z,0.72
2024-03-26T03:52:43.642Z,0.72
2024-03-26T03:53:43.694Z,0.72
2024-03-26T03:54:43.730Z,0.71
2024-03-26T03:55:43.776Z,0.71
2024-03-26T03:56:43.774Z,0.71
2024-03-26T03:57:43.766Z,0.72
2024-03-26T03:58:43.733Z,0.72
2024-03-26T03:59:43.743Z,0.72
2024-03-26T04:00:43.717Z,0.72
2024-03-26T04:01:43.715Z,0.72
2024-03-26T04:02:43.713Z,0.73
2024-03-26T04:03:43.688Z,0.73
2024-03-26T04:04:43.679Z,0.73
2024-03-26T04:05:43.666Z,0.72
2024-03-26T04:06:43.704Z,0.72
2024-03-26T04:07:43.739Z,0.72
2024-03-26T04:08:43.770Z,0.72
2024-03-26T04:09:43.810Z,0.74
2024-03-26T04:10:43.854Z,0.74
2024-03-26T04:11:43.890Z,0.73
2024-03-26T04:12:43.938Z,0.74
2024-03-26T04:13:43.968Z,0.72
2024-03-26T04:14:44.013Z,0.75
2024-03-26T04:15:44.054Z,0.74
2024-03-26T04:16:44.095Z,0.74
2024-03-26T04:17:44.136Z,0.73
2024-03-26T04:18:44.177Z,0.74
2024-03-26T04:19:44.189Z,0.72
2024-03-26T04:20:44.220Z,0.73
2024-03-26T04:21:44.261Z,0.72
2024-03-26T04:22:44.294Z,0.73
2024-03-26T04:23:44.329Z,0.73
2024-03-26T04:24:44.402Z,0.74
2024-03-26T04:25:44.415Z,0.74
2024-03-26T04:26:44.463Z,0.73
2024-03-26T04:27:44.486Z,0.73
2024-03-26T04:28:44.537Z,0.73
2024-03-26T04:29:51.770Z,0.50
2024-03-26T04:30:51.737Z,0.50
2024-03-26T04:31:59.023Z,0.50
2024-03-26T04:32:59.041Z,0.50
2024-03-26T04:33:59.040Z,0.50
2024-03-26T04:34:59.063Z,0.50
2024-03-26T04:35:59.082Z,0.50
2024-03-26T04:36:59.099Z,0.50
2024-03-26T04:37:59.140Z,0.51
2024-03-26T04:38:59.135Z,0.51
2024-03-26T04:39:59.168Z,0.51
2024-03-26T04:40:59.195Z,0.51
2024-03-26T04:41:59.211Z,0.52
2024-03-26T04:42:59.239Z,0.51
2024-03-26T04:43:59.253Z,0.51
2024-03-26T04:44:59.283Z,0.51
2024-03-26T04:45:59.297Z,0.51
2024-03-26T04:46:59.312Z,0.51
2024-03-26T04:47:59.345Z,0.50
2024-03-26T04:48:59.358Z,0.51
2024-03-26T04:49:59.380Z,0.51
2024-03-26T04:50:59.390Z,0.51
2024-03-26T04:51:59.457Z,0.52
2024-03-26T04:52:59.451Z,0.51
2024-03-26T04:53:59.473Z,0.52
2024-03-26T04:54:59.486Z,0.53
2024-03-26T04:55:59.506Z,0.53
2024-03-26T04:56:59.584Z,0.52
2024-03-26T04:57:59.552Z,0.52
2024-03-26T04:58:59.558Z,0.52
2024-03-26T04:59:59.619Z,0.52
2024-03-26T05:00:59.690Z,0.53
2024-03-26T05:01:59.738Z,0.51
2024-03-26T05:02:59.813Z,0.52
2024-03-26T05:03:59.858Z,0.53
2024-03-26T05:04:59.918Z,0.51
2024-03-26T05:05:59.992Z,0.52
2024-03-26T05:07:00.087Z,0.52
2024-03-26T05:08:00.122Z,0.51
2024-03-26T05:09:00.175Z,0.52
2024-03-26T05:10:00.238Z,0.51
2024-03-26T05:11:00.305Z,0.52
2024-03-26T05:12:00.376Z,0.52
2024-03-26T05:13:00.421Z,0.51
2024-03-26T05:14:00.484Z,0.52
2024-03-26T05:15:00.559Z,0.52
2024-03-26T05:16:02.288Z,0.52
2024-03-26T05:17:00.626Z,0.51
2024-03-26T05:18:00.653Z,0.52
2024-03-26T05:19:00.672Z,0.53
2024-03-26T05:20:00.673Z,0.53
2024-03-26T05:21:00.697Z,0.52
2024-03-26T05:22:00.733Z,0.52
2024-03-26T05:23:00.756Z,0.52
2024-03-26T05:24:00.848Z,0.52
2024-03-26T05:25:00.775Z,0.53
2024-03-26T05:26:00.808Z,0.53
2024-03-26T05:27:00.778Z,0.53
2024-03-26T05:28:00.798Z,0.52
2024-03-26T05:29:00.839Z,0.52
2024-03-26T05:30:00.849Z,0.53
2024-03-26T05:31:00.832Z,0.52
2024-03-26T05:32:00.864Z,0.52
2024-03-26T05:33:00.859Z,0.53
2024-03-26T05:34:00.890Z,0.51
2024-03-26T05:35:00.900Z,0.52
2024-03-26T05:36:00.936Z,0.52
2024-03-26T05:37:00.982Z,0.52
2024-03-26T05:38:00.939Z,0.53
2024-03-26T05:39:00.941Z,0.52
2024-03-26T05:40:00.970Z,0.52
2024-03-26T05:41:00.986Z,0.52
2024-03-26T05:42:01.016Z,0.52
2024-03-26T05:43:01.014Z,0.51
2024-03-26T05:44:01.039Z,0.53
2024-03-26T05:45:01.066Z,0.53
2024-03-26T05:46:01.054Z,0.51
2024-03-26T05:47:01.078Z,0.51
2024-03-26T05:48:01.627Z,0.51
2024-03-26T05:49:01.090Z,0.52
2024-03-26T05:50:01.132Z,0.52
2024-03-26T05:51:01.139Z,0.52
2024-03-26T05:52:01.183Z,0.52
2024-03-26T05:53:01.170Z,0.52
2024-03-26T05:54:01.193Z,0.51
2024-03-26T05:55:01.202Z,0.52
2024-03-26T05:56:01.199Z,0.52
2024-03-26T05:57:01.239Z,0.51
2024-03-26T05:58:01.236Z,0.51
2024-03-26T05:59:01.264Z,0.51
2024-03-26T06:00:01.284Z,0.50
2024-03-26T06:01:01.293Z,0.51
2024-03-26T06:02:01.295Z,0.51
2024-03-26T06:03:01.313Z,0.51
2024-03-26T06:04:02.779Z,0.51
2024-03-26T06:05:01.375Z,0.52
2024-03-26T06:06:01.399Z,0.52
2024-03-26T06:07:01.396Z,0.51
2024-03-26T06:08:01.393Z,0.52
2024-03-26T06:09:01.410Z,0.52
2024-03-26T06:10:01.430Z,0.51
2024-03-26T06:11:01.471Z,0.52
2024-03-26T06:12:01.529Z,0.54
2024-03-26T06:13:04.104Z,0.51
2024-03-26T06:14:01.543Z,0.51
2024-03-26T06:15:01.526Z,0.52
2024-03-26T06:16:01.557Z,0.51
2024-03-26T06:17:01.541Z,0.51
2024-03-26T06:19:01.584Z,0.52
2024-03-26T06:20:01.779Z,0.51
2024-03-26T06:21:01.660Z,0.51
2024-03-26T06:22:01.653Z,0.51
2024-03-26T06:23:01.674Z,0.53
2024-03-26T06:24:01.682Z,0.52
2024-03-26T06:25:01.747Z,0.53
2024-03-26T06:26:01.714Z,0.52
2024-03-26T06:27:01.762Z,0.52
2024-03-26T06:28:01.826Z,0.52
2024-03-26T06:29:01.788Z,0.52
2024-03-26T06:30:01.831Z,0.52
2024-03-26T06:31:01.824Z,0.52
2024-03-26T06:32:01.847Z,0.51
2024-03-26T06:33:01.859Z,0.51
2024-03-26T06:34:01.868Z,0.51
2024-03-26T06:35:01.929Z,0.52
2024-03-26T06:36:01.933Z,0.51
2024-03-26T06:37:01.951Z,0.51
2024-03-26T06:38:01.963Z,0.52
2024-03-26T06:39:02.020Z,0.51
2024-03-26T06:40:02.020Z,0.51
2024-03-26T06:41:02.029Z,0.52
2024-03-26T06:42:02.063Z,0.52
2024-03-26T06:43:02.058Z,0.52
2024-03-26T06:44:02.081Z,0.52
2024-03-26T06:45:02.085Z,0.52
2024-03-26T06:46:02.112Z,0.53
2024-03-26T06:47:02.124Z,0.52
2024-03-26T06:48:02.144Z,0.51
2024-03-26T06:49:02.161Z,0.52
2024-03-26T06:50:02.199Z,0.52
2024-03-26T06:51:02.204Z,0.51
2024-03-26T06:52:02.231Z,0.52
2024-03-26T06:53:02.236Z,0.52
2024-03-26T06:54:02.304Z,0.51
2024-03-26T06:55:02.397Z,0.53
2024-03-26T06:56:02.453Z,0.53
2024-03-26T06:57:02.563Z,0.52
2024-03-26T06:58:02.610Z,0.51
2024-03-26T06:59:02.653Z,0.52
2024-03-26T07:00:02.723Z,0.51
2024-03-26T07:01:02.785Z,0.52
2024-03-26T07:02:02.858Z,0.52
2024-03-26T07:03:02.906Z,0.51
2024-03-26T07:04:02.993Z,0.51
2024-03-26T07:05:03.047Z,0.52
2024-03-26T07:06:03.095Z,0.51
2024-03-26T07:07:03.116Z,0.51
2024-03-26T07:08:03.124Z,0.51
2024-03-26T07:09:03.160Z,0.51
2024-03-26T07:10:03.137Z,0.51
2024-03-26T07:11:03.142Z,0.51
2024-03-26T07:12:03.186Z,0.52
2024-03-26T07:13:03.184Z,0.50
2024-03-26T07:14:03.188Z,0.51
2024-03-26T07:15:03.210Z,0.51
2024-03-26T07:16:03.217Z,0.51
2024-03-26T07:17:03.235Z,0.51
2024-03-26T07:18:03.248Z,0.51
2024-03-26T07:19:03.258Z,0.50
2024-03-26T07:20:03.292Z,0.51
2024-03-26T07:21:03.286Z,0.50
2024-03-26T07:22:03.324Z,0.50
2024-03-26T07:23:03.314Z,0.49
2024-03-26T07:24:03.345Z,0.49
2024-03-26T07:25:03.342Z,0.49
2024-03-26T07:26:03.355Z,0.51
2024-03-26T07:27:03.374Z,0.51
2024-03-26T07:28:03.380Z,0.51
2024-03-26T07:29:03.388Z,0.51
2024-03-26T07:30:03.425Z,0.50
2024-03-26T07:31:03.426Z,0.50
2024-03-26T07:32:03.437Z,0.50
2024-03-26T07:33:03.453Z,0.50
2024-03-26T07:34:03.458Z,0.49
2024-03-26T07:35:03.468Z,0.50
2024-03-26T07:36:03.479Z,0.51
2024-03-26T07:37:03.512Z,0.50
2024-03-26T07:38:03.533Z,0.50
2024-03-26T07:39:03.556Z,0.50
2024-03-26T07:40:03.582Z,0.50
2024-03-26T07:41:03.570Z,0.50
2024-03-26T07:42:03.660Z,0.51
2024-03-26T07:43:06.469Z,0.50
2024-03-26T07:44:04.677Z,0.50
2024-03-26T07:45:03.784Z,0.50
2024-03-26T07:46:03.728Z,0.50
2024-03-26T07:47:03.687Z,0.50
2024-03-26T07:48:03.668Z,0.50
2024-03-26T07:49:03.689Z,0.51
2024-03-26T07:50:03.736Z,0.51
2024-03-26T07:51:03.720Z,0.51
2024-03-26T07:52:03.762Z,0.51
2024-03-26T07:53:03.788Z,0.51
2024-03-26T07:54:03.866Z,0.50
2024-03-26T07:55:03.771Z,0.49
2024-03-26T07:56:03.833Z,0.51
2024-03-26T07:57:03.936Z,0.51
2024-03-26T07:58:03.958Z,0.51
2024-03-26T07:59:03.826Z,0.50
2024-03-26T08:00:03.848Z,0.51
2024-03-26T08:01:03.974Z,0.50
2024-03-26T08:02:03.874Z,0.50
2024-03-26T08:03:03.959Z,0.52
2024-03-26T08:04:03.931Z,0.51
2024-03-26T08:05:03.885Z,0.50
2024-03-26T08:06:03.973Z,0.51
2024-03-26T08:07:03.979Z,0.51
2024-03-26T08:08:04.022Z,0.52
2024-03-26T08:09:04.113Z,0.51
2024-03-26T08:10:04.180Z,0.51
2024-03-26T08:11:04.186Z,0.52
2024-03-26T08:12:04.292Z,0.51
2024-03-26T08:13:04.351Z,0.52
2024-03-26T08:14:04.316Z,0.52
2024-03-26T08:15:04.470Z,0.51
2024-03-26T08:16:04.467Z,0.53
2024-03-26T08:17:04.571Z,0.53
2024-03-26T08:18:04.623Z,0.53
2024-03-26T08:19:04.583Z,0.51
2024-03-26T08:20:04.626Z,0.52
2024-03-26T08:21:04.739Z,0.53
2024-03-26T08:22:04.750Z,0.53
2024-03-26T08:23:04.762Z,0.52
2024-03-26T08:24:04.829Z,0.53
2024-03-26T08:25:04.866Z,0.51
2024-03-26T08:26:04.921Z,0.53
2024-03-26T08:27:04.971Z,0.53
2024-03-26T08:28:04.986Z,0.53
2024-03-26T08:29:05.087Z,0.53
2024-03-26T08:30:07.901Z,0.54
2024-03-26T08:31:05.086Z,0.54
2024-03-26T08:32:05.114Z,0.54
2024-03-26T08:33:05.166Z,0.54
2024-03-26T08:34:05.165Z,0.54
2024-03-26T08:35:05.159Z,0.57
2024-03-26T08:36:05.288Z,0.57
2024-03-26T08:37:05.230Z,0.57
2024-03-26T08:38:05.207Z,0.57
2024-03-26T08:39:05.248Z,0.59
2024-03-26T08:40:05.234Z,0.59
2024-03-26T08:41:05.239Z,0.59
2024-03-26T08:42:05.263Z,0.60
2024-03-26T08:43:05.268Z,0.60
2024-03-26T08:44:05.276Z,0.57
2024-03-26T08:45:06.972Z,0.57
2024-03-26T08:46:05.291Z,0.58
2024-03-26T08:47:05.326Z,0.58
2024-03-26T08:48:05.327Z,0.59
2024-03-26T08:49:05.341Z,0.59
2024-03-26T08:50:05.353Z,0.59
2024-03-26T08:51:05.357Z,0.62
2024-03-26T08:52:05.373Z,0.60
2024-03-26T08:53:05.389Z,0.60
2024-03-26T08:54:05.393Z,0.62
2024-03-26T08:55:05.425Z,0.58
2024-03-26T08:56:15.136Z,0.62
2024-03-26T08:57:06.453Z,0.61
2024-03-26T08:58:05.463Z,0.62
2024-03-26T08:59:05.470Z,0.63
2024-03-26T09:00:05.481Z,0.63
2024-03-26T09:01:05.507Z,0.66
2024-03-26T09:02:05.545Z,0.62
2024-03-26T09:03:05.597Z,0.60
2024-03-26T09:04:05.550Z,0.63
2024-03-26T09:05:05.564Z,0.66
2024-03-26T09:06:05.588Z,0.68
2024-03-26T09:07:05.596Z,0.68
2024-03-26T09:08:05.585Z,0.72
2024-03-26T09:09:05.610Z,0.68
2024-03-26T09:10:05.624Z,0.70
2024-03-26T09:11:05.628Z,0.77
2024-03-26T09:12:05.628Z,0.74
2024-03-26T09:13:05.643Z,0.71
2024-03-26T09:14:05.642Z,0.80
2024-03-26T09:15:05.658Z,0.80
2024-03-26T09:16:05.664Z,0.77
2024-03-26T09:17:05.692Z,0.79
2024-03-26T09:18:05.835Z,0.77
2024-03-26T09:19:05.733Z,0.77
2024-03-26T09:20:05.724Z,0.80
2024-03-26T09:21:05.703Z,0.80
2024-03-26T09:22:05.700Z,0.83
2024-03-26T09:23:05.702Z,0.86
2024-03-26T09:24:06.461Z,0.82
2024-03-26T09:25:05.719Z,0.82
2024-03-26T09:26:05.735Z,0.83
2024-03-26T09:27:05.728Z,0.86
2024-03-26T09:28:05.727Z,0.80
2024-03-26T09:29:05.739Z,0.79
2024-03-26T09:30:05.763Z,0.78
2024-03-26T09:31:07.576Z,0.76
2024-03-26T09:32:05.748Z,0.72
2024-03-26T09:33:05.747Z,0.54
2024-03-26T09:34:05.766Z,0.48
2024-03-26T09:35:05.797Z,0.45
2024-03-26T09:36:05.791Z,0.39
2024-03-26T09:37:05.815Z,0.33
2024-03-26T09:38:05.846Z,0.25
2024-03-26T09:39:08.362Z,0.20
2024-03-26T09:40:06.160Z,0.16
2024-03-26T09:41:06.046Z,0.16
2024-03-26T09:42:05.923Z,0.16
2024-03-26T09:43:05.959Z,0.16
2024-03-26T09:44:05.948Z,0.17
2024-03-26T09:45:06.986Z,0.21
2024-03-26T09:46:05.973Z,0.28
2024-03-26T09:47:05.988Z,0.34
2024-03-26T09:48:05.990Z,0.45
2024-03-26T09:49:05.999Z,0.51
2024-03-26T09:50:06.024Z,0.52
2024-03-26T09:51:06.026Z,0.52
2024-03-26T09:52:06.044Z,0.59
2024-03-26T09:53:06.030Z,0.57
2024-03-26T09:54:06.035Z,0.62
2024-03-26T09:55:06.062Z,0.66
2024-03-26T09:56:06.047Z,0.69
2024-03-26T09:57:06.056Z,0.74
2024-03-26T09:58:06.050Z,0.76
2024-03-26T09:59:06.033Z,0.79
2024-03-26T10:00:06.028Z,0.85
2024-03-26T10:01:06.047Z,0.88
2024-03-26T10:02:06.049Z,0.92
2024-03-26T10:03:06.051Z,0.97
2024-03-26T10:04:06.056Z,1.00
2024-03-26T10:05:06.057Z,1.01
2024-03-26T10:06:06.060Z,1.09
2024-03-26T10:07:06.065Z,1.17
2024-03-26T10:08:06.085Z,1.20
2024-03-26T10:09:06.092Z,1.28
2024-03-26T10:10:06.064Z,1.36
2024-03-26T10:11:06.087Z,1.36
2024-03-26T10:12:06.090Z,1.35
2024-03-26T10:13:06.052Z,1.44
2024-03-26T10:14:06.057Z,1.44
2024-03-26T10:15:06.071Z,1.51
2024-03-26T10:16:06.083Z,1.57
2024-03-26T10:17:06.094Z,1.57
2024-03-26T10:18:06.075Z,1.58
2024-03-26T10:19:06.088Z,1.47
2024-03-26T10:20:06.109Z,1.30
2024-03-26T10:21:06.124Z,1.13
2024-03-26T10:22:06.148Z,0.89
2024-03-26T10:23:06.146Z,0.69
2024-03-26T10:24:06.189Z,0.56
2024-03-26T10:25:06.177Z,0.50
2024-03-26T10:26:06.184Z,0.48
2024-03-26T10:27:06.209Z,0.50
2024-03-26T10:28:06.205Z,0.50
2024-03-26T10:29:06.259Z,0.50
2024-03-26T10:30:06.348Z,0.49
2024-03-26T10:31:06.371Z,0.50
2024-03-26T10:32:06.436Z,0.50
2024-03-26T10:33:06.503Z,0.50
2024-03-26T10:34:06.535Z,0.50
2024-03-26T10:35:06.584Z,0.52
2024-03-26T10:36:06.639Z,0.59
2024-03-26T10:37:06.684Z,0.62
2024-03-26T10:38:13.125Z,0.69
2024-03-26T10:39:07.763Z,0.69
2024-03-26T10:40:06.732Z,0.71
2024-03-26T10:41:06.744Z,0.74
2024-03-26T10:42:06.750Z,0.82
2024-03-26T10:43:06.744Z,0.97
2024-03-26T10:44:06.753Z,0.70
2024-03-26T10:45:06.767Z,0.74
2024-03-26T10:46:08.332Z,0.85
2024-03-26T10:47:06.778Z,1.08
2024-03-26T10:48:06.790Z,1.52
2024-03-26T10:49:06.800Z,1.63
2024-03-26T10:50:06.785Z,1.83
2024-03-26T10:51:06.802Z,2.00
2024-03-26T10:52:06.799Z,2.21
2024-03-26T10:53:06.789Z,2.40
2024-03-26T10:54:06.794Z,2.56
2024-03-26T10:55:06.805Z,2.71
2024-03-26T10:56:06.826Z,2.98
2024-03-26T10:57:06.837Z,3.24
2024-03-26T10:58:06.812Z,3.46
2024-03-26T10:59:06.879Z,3.65
2024-03-26T11:00:08.421Z,3.85
2024-03-26T11:01:06.987Z,3.95
2024-03-26T11:02:07.024Z,4.25
2024-03-26T11:03:07.040Z,4.22
2024-03-26T11:04:07.056Z,4.53
2024-03-26T11:05:07.066Z,4.65
2024-03-26T11:06:07.111Z,4.92
2024-03-26T11:07:07.131Z,5.22
2024-03-26T11:08:10.076Z,5.26
2024-03-26T11:09:07.169Z,5.57
2024-03-26T11:10:07.175Z,5.74
2024-03-26T11:11:07.172Z,6.01
2024-03-26T11:12:07.188Z,6.30
2024-03-26T11:13:07.156Z,6.63
2024-03-26T11:14:07.166Z,6.85
2024-03-26T11:15:07.170Z,6.99
2024-03-26T11:16:10.487Z,7.27
2024-03-26T11:17:07.299Z,7.29
2024-03-26T11:18:07.181Z,7.39
2024-03-26T11:19:07.151Z,7.58
2024-03-26T11:20:07.164Z,7.30
2024-03-26T11:21:07.172Z,7.46
2024-03-26T11:22:07.175Z,7.88
2024-03-26T11:23:07.163Z,8.54
2024-03-26T11:24:07.167Z,9.81
2024-03-26T11:25:07.143Z,9.95
2024-03-26T11:26:07.153Z,10.43
2024-03-26T11:27:09.361Z,10.60
2024-03-26T11:28:07.224Z,10.52
2024-03-26T11:29:07.265Z,10.60
2024-03-26T11:30:07.353Z,11.10
2024-03-26T11:31:07.376Z,11.11
2024-03-26T11:32:07.436Z,11.46
2024-03-26T11:33:07.502Z,11.54
2024-03-26T11:34:07.484Z,11.34
2024-03-26T11:35:07.532Z,11.79
2024-03-26T11:36:07.589Z,11.78
2024-03-26T11:37:07.643Z,11.79
2024-03-26T11:38:07.643Z,12.26
2024-03-26T11:39:07.704Z,12.20
2024-03-26T11:40:07.755Z,11.89
2024-03-26T11:41:08.077Z,11.68
2024-03-26T11:42:07.722Z,12.00
2024-03-26T11:43:07.763Z,12.30
2024-03-26T11:44:07.819Z,12.12
2024-03-26T11:45:07.858Z,12.31
2024-03-26T11:46:07.875Z,12.54
2024-03-26T11:47:07.911Z,12.48
2024-03-26T11:48:07.987Z,12.48
2024-03-26T11:49:08.063Z,12.23
2024-03-26T11:50:08.107Z,12.14
2024-03-26T11:51:08.164Z,11.79
2024-03-26T11:52:08.218Z,11.82
2024-03-26T11:53:08.246Z,11.75
2024-03-26T11:54:08.343Z,11.65
2024-03-26T11:55:08.340Z,11.53
2024-03-26T11:56:08.366Z,11.38
2024-03-26T11:57:08.433Z,11.26
2024-03-26T11:58:08.516Z,10.78
2024-03-26T11:59:08.510Z,11.13
2024-03-26T12:00:08.598Z,10.98
2024-03-26T12:01:08.598Z,10.86
2024-03-26T12:02:08.671Z,10.57
2024-03-26T12:03:10.032Z,10.24
2024-03-26T12:04:08.740Z,10.44
2024-03-26T12:05:08.807Z,10.09
2024-03-26T12:06:08.858Z,9.88
2024-03-26T12:07:08.882Z,9.79
2024-03-26T12:08:08.956Z,9.77
2024-03-26T12:09:09.008Z,9.80
2024-03-26T12:10:09.051Z,9.62
2024-03-26T12:11:09.100Z,9.54
2024-03-26T12:12:09.151Z,9.33
2024-03-26T12:13:09.174Z,9.29
2024-03-26T12:14:09.209Z,9.07
2024-03-26T12:15:09.287Z,9.01
2024-03-26T12:16:09.322Z,8.42
2024-03-26T12:17:09.340Z,8.73
2024-03-26T12:18:09.387Z,8.79
2024-03-26T12:19:09.412Z,8.62
2024-03-26T12:20:09.468Z,8.52
2024-03-26T12:21:09.518Z,8.60
2024-03-26T12:22:09.553Z,8.67
2024-03-26T12:23:09.591Z,8.69
2024-03-26T12:24:09.646Z,8.66
2024-03-26T12:25:09.670Z,8.60
2024-03-26T12:26:09.724Z,8.56
2024-03-26T12:27:09.767Z,8.44
2024-03-26T12:28:09.799Z,8.25
2024-03-26T12:29:09.809Z,8.06
2024-03-26T12:30:09.839Z,8.25
2024-03-26T12:31:09.842Z,8.33
2024-03-26T12:32:09.846Z,7.99
2024-03-26T12:33:09.882Z,8.28
2024-03-26T12:34:09.888Z,7.93
2024-03-26T12:35:09.897Z,8.08
2024-03-26T12:36:09.954Z,8.19
2024-03-26T12:37:09.925Z,8.20
2024-03-26T12:38:09.954Z,8.20
2024-03-26T12:39:09.975Z,8.06
2024-03-26T12:40:09.997Z,7.90
2024-03-26T12:41:09.970Z,7.89
2024-03-26T12:42:10.014Z,7.89
2024-03-26T12:43:10.054Z,7.59
2024-03-26T12:44:10.086Z,7.63
2024-03-26T12:45:10.087Z,7.39
2024-03-26T12:47:10.131Z,7.40
2024-03-26T12:48:10.187Z,7.32
2024-03-26T12:49:10.168Z,7.06
2024-03-26T12:50:10.186Z,7.14
2024-03-26T12:51:10.225Z,6.99
2024-03-26T12:52:10.218Z,6.95
2024-03-26T12:53:10.251Z,7.08
2024-03-26T12:54:10.286Z,7.12
2024-03-26T12:56:10.319Z,7.18
2024-03-26T12:57:10.364Z,7.09
2024-03-26T12:58:10.366Z,7.07
2024-03-26T12:59:10.381Z,7.00
2024-03-26T13:00:10.418Z,6.98
2024-03-26T13:01:10.472Z,7.12
2024-03-26T13:02:10.518Z,7.08
2024-03-26T13:03:10.528Z,7.09
2024-03-26T13:04:10.538Z,7.05
2024-03-26T13:05:10.537Z,7.06
2024-03-26T13:06:10.576Z,7.03
2024-03-26T13:07:10.538Z,6.88
2024-03-26T13:08:10.538Z,6.90
2024-03-26T13:09:10.550Z,6.82
2024-03-26T13:10:10.544Z,6.92
2024-03-26T13:11:10.540Z,6.81
2024-03-26T13:12:10.550Z,6.69
2024-03-26T13:13:10.595Z,6.73
2024-03-26T13:14:10.584Z,6.78
2024-03-26T13:15:10.630Z,6.80
2024-03-26T13:16:10.620Z,6.80
2024-03-26T13:17:10.624Z,6.72
2024-03-26T13:18:10.709Z,6.71
2024-03-26T13:19:10.675Z,6.85
2024-03-26T13:20:10.680Z,6.63
2024-03-26T13:21:10.694Z,6.55
2024-03-26T13:22:10.705Z,6.48